Terminal Aerodrome Forecast
Issued by NWS

Home | Current Version | Previous Version | Graphics & Text | Print | Product List | Glossary On
Versions: 1 2 3 4 5 6 7 8 9 10 11 12 13 14 15 16 17 18 19 20 21 22 23 24
000
FTUS43 KGRB 290559 AAA
TAFCWA
TAF AMD
KCWA 290559Z 2906/3006 VRB03KT P6SM VCSH BKN040 BKN080
      TEMPO 2906/2908 5SM -SHRA BKN015
     FM290800 VRB03KT 3SM BR SCT040 SCT080
      TEMPO 2908/2912 1/2SM FG VV002
     FM291400 VRB03KT P6SM SCT015 BKN035
     FM291800 28006KT P6SM VCSH BKN035 BKN080
      TEMPO 2923/3003 3SM TSRA BR BKN025CB=

USA.gov is the U.S. government's official web portal to all federal, state and local government web resources and services.